createdAt,value
2019-03-22T00:00:33.056Z,102945.35
2019-03-22T00:03:02.833Z,102937.83
2019-03-22T00:05:32.574Z,102936.02
2019-03-22T00:08:02.356Z,102942.56
2019-03-22T00:10:32.112Z,102929.47
2019-03-22T00:13:01.797Z,102933.38
2019-03-22T00:15:31.528Z,102930.79
2019-03-22T00:18:02.004Z,102933.00
2019-03-22T00:20:31.828Z,102928.02
2019-03-22T00:23:01.768Z,102921.59
2019-03-22T00:25:31.511Z,102927.16
2019-03-22T00:28:01.304Z,102913.83
2019-03-22T00:30:30.981Z,102917.94
2019-03-22T00:33:00.812Z,102913.48
2019-03-22T00:35:30.539Z,102913.02
2019-03-22T00:38:00.271Z,102911.01
2019-03-22T00:40:30.255Z,102920.56
2019-03-22T00:42:59.931Z,102915.55
2019-03-22T00:45:29.644Z,102918.31
2019-03-22T00:47:59.345Z,102922.25
2019-03-22T00:50:29.046Z,102912.99
2019-03-22T00:52:58.845Z,102910.61
2019-03-22T00:55:28.767Z,102918.67
2019-03-22T00:57:58.437Z,102914.09
2019-03-22T01:00:28.331Z,102914.13
2019-03-22T01:02:57.991Z,102914.63
2019-03-22T01:05:27.781Z,102920.80
2019-03-22T01:07:57.438Z,102927.52
2019-03-22T01:10:27.192Z,102921.91
2019-03-22T01:12:56.952Z,102923.78
2019-03-22T01:15:26.669Z,102921.75
2019-03-22T01:17:56.672Z,102917.99
2019-03-22T01:20:26.387Z,102916.68
2019-03-22T01:22:56.199Z,102924.02
2019-03-22T01:25:25.909Z,102920.30
2019-03-22T01:27:55.685Z,102920.42
2019-03-22T01:30:25.408Z,102912.77
2019-03-22T01:32:55.114Z,102908.46
2019-03-22T01:35:24.795Z,102901.37
2019-03-22T01:37:54.567Z,102897.73
2019-03-22T01:40:24.339Z,102901.59
2019-03-22T01:42:54.137Z,102896.42
2019-03-22T01:45:23.807Z,102894.22
2019-03-22T01:47:53.629Z,102898.13
2019-03-22T01:50:23.315Z,102900.70
2019-03-22T01:52:53.026Z,102898.63
2019-03-22T01:55:22.747Z,102896.81
2019-03-22T01:57:54.018Z,102899.94
2019-03-22T02:00:24.050Z,102899.42
2019-03-22T02:02:53.857Z,102900.41
2019-03-22T02:05:23.650Z,102896.55
2019-03-22T02:07:53.362Z,102902.11
2019-03-22T02:10:23.084Z,102895.30
2019-03-22T02:12:52.917Z,102899.42
2019-03-22T02:15:22.734Z,102895.22
2019-03-22T02:17:52.522Z,102890.64
2019-03-22T02:20:22.397Z,102897.16
2019-03-22T02:22:52.090Z,102898.44
2019-03-22T02:25:21.882Z,102888.19
2019-03-22T02:27:51.672Z,102890.34
2019-03-22T02:30:21.456Z,102886.92
2019-03-22T02:32:51.167Z,102887.38
2019-03-22T02:35:29.218Z,102893.91
2019-03-22T02:37:52.309Z,102885.66
2019-03-22T02:40:22.068Z,102882.35
2019-03-22T02:42:51.719Z,102888.78
2019-03-22T02:45:21.399Z,102881.39
2019-03-22T02:47:51.078Z,102880.52
2019-03-22T02:50:20.834Z,102883.84
2019-03-22T02:52:50.601Z,102883.30
2019-03-22T02:55:20.518Z,102881.59
2019-03-22T02:57:50.257Z,102876.08
2019-03-22T03:00:20.542Z,102872.91
2019-03-22T03:02:50.261Z,102872.09
2019-03-22T03:05:20.089Z,102883.16
2019-03-22T03:07:49.893Z,102880.13
2019-03-22T03:10:19.762Z,102885.12
2019-03-22T03:12:49.577Z,102874.79
2019-03-22T03:15:19.655Z,102872.41
2019-03-22T03:17:49.451Z,102870.63
2019-03-22T03:20:20.307Z,102875.95
2019-03-22T03:22:50.077Z,102867.88
2019-03-22T03:25:19.966Z,102876.77
2019-03-22T03:27:49.809Z,102878.92
2019-03-22T03:30:21.264Z,102871.53
2019-03-22T03:32:51.205Z,102869.41
2019-03-22T03:35:21.047Z,102873.90
2019-03-22T03:37:50.800Z,102870.96
2019-03-22T03:40:20.856Z,102866.97
2019-03-22T03:42:50.597Z,102859.05
2019-03-22T03:45:38.878Z,102861.20
2019-03-22T03:48:10.799Z,102863.35
2019-03-22T03:50:40.737Z,102860.23
2019-03-22T03:53:10.507Z,102864.90
2019-03-22T03:55:40.153Z,102864.53
2019-03-22T03:58:09.977Z,102868.73
2019-03-22T04:00:40.006Z,102866.08
2019-03-22T04:03:09.780Z,102865.02
2019-03-22T04:05:39.549Z,102868.81
2019-03-22T04:08:09.364Z,102863.78
2019-03-22T04:10:39.125Z,102855.08
2019-03-22T04:13:08.848Z,102854.17
2019-03-22T04:15:38.808Z,102859.73
2019-03-22T04:18:08.499Z,102859.36
2019-03-22T04:20:38.282Z,102855.45
2019-03-22T04:23:07.951Z,102859.20
2019-03-22T04:25:37.637Z,102856.33
2019-03-22T04:28:07.287Z,102863.27
2019-03-22T04:30:36.979Z,102860.59
2019-03-22T04:33:07.117Z,102859.98
2019-03-22T04:35:37.017Z,102866.34
2019-03-22T04:38:06.735Z,102866.27
2019-03-22T04:40:36.631Z,102862.22
2019-03-22T04:43:06.539Z,102853.30
2019-03-22T04:45:38.316Z,102851.20
2019-03-22T04:48:18.598Z,102854.23
2019-03-22T04:50:51.815Z,102849.53
2019-03-22T04:53:24.676Z,102855.84
2019-03-22T04:55:58.742Z,102858.34
2019-03-22T04:58:30.124Z,102866.19
2019-03-22T05:01:01.585Z,102863.87
2019-03-22T05:03:34.200Z,102856.58
2019-03-22T05:06:06.290Z,102866.25
2019-03-22T05:08:40.035Z,102858.34
2019-03-22T05:11:13.197Z,102858.44
2019-03-22T05:13:47.551Z,102861.47
2019-03-22T05:16:21.616Z,102861.47
2019-03-22T05:18:54.196Z,102861.97
2019-03-22T05:21:28.124Z,102860.72
2019-03-22T05:24:02.404Z,102852.90
2019-03-22T05:26:36.220Z,102853.85
2019-03-22T05:29:08.583Z,102852.46
2019-03-22T05:32:05.070Z,102854.42
2019-03-22T05:34:34.900Z,102848.09
2019-03-22T05:37:05.239Z,102845.50
2019-03-22T05:39:35.034Z,102853.47
2019-03-22T05:42:04.981Z,102850.98
2019-03-22T05:44:34.698Z,102845.66
2019-03-22T05:47:04.432Z,102844.11
2019-03-22T05:49:34.185Z,102853.92
2019-03-22T05:52:03.934Z,102855.02
2019-03-22T05:54:33.732Z,102866.98
2019-03-22T05:57:12.812Z,102872.00
2019-03-22T05:59:42.371Z,102874.19
2019-03-22T06:02:06.434Z,102876.56
2019-03-22T06:04:36.376Z,102874.56
2019-03-22T06:07:06.632Z,102877.89
2019-03-22T06:09:36.463Z,102884.02
2019-03-22T06:12:06.279Z,102887.16
2019-03-22T06:14:36.041Z,102882.56
2019-03-22T06:17:05.680Z,102878.45
2019-03-22T06:19:35.414Z,102883.19
2019-03-22T06:22:05.272Z,102885.11
2019-03-22T06:24:35.284Z,102896.03
2019-03-22T06:27:05.049Z,102895.59
2019-03-22T06:29:34.754Z,102891.06
2019-03-22T06:32:04.496Z,102890.42
2019-03-22T06:34:34.205Z,102887.05
2019-03-22T06:37:03.946Z,102890.73
2019-03-22T06:39:33.781Z,102891.61
2019-03-22T06:42:03.500Z,102887.58
2019-03-22T06:44:33.394Z,102888.68
2019-03-22T06:47:03.138Z,102892.50
2019-03-22T06:49:32.842Z,102891.31
2019-03-22T06:52:02.518Z,102896.60
2019-03-22T06:54:32.251Z,102894.65
2019-03-22T06:57:02.160Z,102900.48
2019-03-22T06:59:31.884Z,102901.67
2019-03-22T07:02:01.720Z,102912.49
2019-03-22T07:04:31.393Z,102913.59
2019-03-22T07:07:01.277Z,102916.78
2019-03-22T07:09:30.916Z,102917.78
2019-03-22T07:12:00.604Z,102920.80
2019-03-22T07:14:30.254Z,102921.34
2019-03-22T07:16:59.976Z,102920.88
2019-03-22T07:19:29.640Z,102921.54
2019-03-22T07:21:59.473Z,102922.01
2019-03-22T07:24:29.626Z,102918.56
2019-03-22T07:26:59.543Z,102927.16
2019-03-22T07:29:29.327Z,102926.45
2019-03-22T07:31:59.064Z,102919.63
2019-03-22T07:34:28.759Z,102922.66
2019-03-22T07:36:58.504Z,102924.84
2019-03-22T07:39:28.201Z,102919.70
2019-03-22T07:41:57.916Z,102919.14
2019-03-22T07:44:27.625Z,102918.23
2019-03-22T07:46:57.262Z,102919.19
2019-03-22T07:49:27.011Z,102923.27
2019-03-22T07:51:56.647Z,102922.41
2019-03-22T07:54:26.495Z,102929.80
2019-03-22T07:56:56.336Z,102927.16
2019-03-22T07:59:26.184Z,102930.69
2019-03-22T08:01:55.822Z,102931.16
2019-03-22T08:04:25.519Z,102929.08
2019-03-22T08:06:55.268Z,102922.17
2019-03-22T08:09:25.053Z,102919.59
2019-03-22T08:11:54.791Z,102922.44
2019-03-22T08:14:24.492Z,102919.16
2019-03-22T08:16:54.353Z,102919.79
2019-03-22T08:19:24.109Z,102921.19
2019-03-22T08:21:53.926Z,102921.17
2019-03-22T08:24:23.610Z,102918.33
2019-03-22T08:26:53.406Z,102918.98
2019-03-22T08:29:23.073Z,102916.97
2019-03-22T08:31:52.813Z,102913.29
2019-03-22T08:34:22.506Z,102906.55
2019-03-22T08:36:52.291Z,102898.16
2019-03-22T08:39:21.973Z,102893.02
2019-03-22T08:41:51.760Z,102899.50
2019-03-22T08:44:21.535Z,102887.55
2019-03-22T08:46:51.439Z,102885.80
2019-03-22T08:49:21.341Z,102886.17
2019-03-22T08:51:51.487Z,102884.95
2019-03-22T08:54:21.204Z,102888.02
2019-03-22T08:56:50.935Z,102888.31
2019-03-22T08:59:20.754Z,102893.70
2019-03-22T09:01:50.569Z,102892.92
2019-03-22T09:04:20.282Z,102894.31
2019-03-22T09:06:50.076Z,102894.20
2019-03-22T09:09:19.961Z,102879.61
2019-03-22T09:11:49.596Z,102876.98
2019-03-22T09:14:19.289Z,102869.28
2019-03-22T09:16:48.956Z,102873.44
2019-03-22T09:19:18.665Z,102864.66
2019-03-22T09:21:48.404Z,102870.39
2019-03-22T09:24:19.130Z,102863.39
2019-03-22T09:26:48.921Z,102862.65
2019-03-22T09:29:18.745Z,102852.58
2019-03-22T09:31:48.447Z,102850.48
2019-03-22T09:34:18.141Z,102844.33
2019-03-22T09:36:47.906Z,102840.17
2019-03-22T09:39:17.645Z,102834.25
2019-03-22T09:41:47.626Z,102837.52
2019-03-22T09:44:17.334Z,102829.80
2019-03-22T09:46:47.186Z,102836.02
2019-03-22T09:49:16.922Z,102829.34
2019-03-22T09:51:46.631Z,102824.80
2019-03-22T09:54:16.476Z,102823.45
2019-03-22T09:56:47.482Z,102819.16
2019-03-22T09:59:17.307Z,102808.42
2019-03-22T10:01:47.027Z,102811.95
2019-03-22T10:04:16.678Z,102807.38
2019-03-22T10:06:46.388Z,102806.88
2019-03-22T10:09:16.201Z,102800.95
2019-03-22T10:11:45.901Z,102798.81
2019-03-22T10:14:15.662Z,102801.49
2019-03-22T10:16:47.649Z,102800.70
2019-03-22T10:19:16.795Z,102790.23
2019-03-22T10:21:46.581Z,102789.95
2019-03-22T10:24:16.268Z,102788.61
2019-03-22T10:26:46.131Z,102783.50
2019-03-22T10:29:15.811Z,102783.49
2019-03-22T10:31:45.479Z,102781.65
2019-03-22T10:34:15.271Z,102775.98
2019-03-22T10:36:44.968Z,102778.12
2019-03-22T10:39:14.831Z,102769.79
2019-03-22T10:41:44.533Z,102775.39
2019-03-22T10:44:14.251Z,102777.28
2019-03-22T10:46:44.003Z,102774.34
2019-03-22T10:49:14.704Z,102775.13
2019-03-22T10:51:56.182Z,102773.22
2019-03-22T10:54:16.033Z,102763.30
2019-03-22T10:56:45.857Z,102768.12
2019-03-22T10:59:15.511Z,102756.54
2019-03-22T11:01:52.222Z,102755.97
2019-03-22T11:04:16.795Z,102744.97
2019-03-22T11:06:46.467Z,102744.70
2019-03-22T11:09:16.291Z,102744.40
2019-03-22T11:11:46.076Z,102740.09
2019-03-22T11:14:15.749Z,102737.88
2019-03-22T11:16:45.468Z,102739.79
2019-03-22T11:19:15.187Z,102731.61
2019-03-22T11:21:45.906Z,102730.02
2019-03-22T11:24:15.628Z,102727.32
2019-03-22T11:26:45.329Z,102724.33
2019-03-22T11:29:15.218Z,102723.23
2019-03-22T11:31:45.032Z,102717.06
2019-03-22T11:34:16.123Z,102712.14
2019-03-22T11:36:45.973Z,102709.95
2019-03-22T11:39:16.179Z,102702.69
2019-03-22T11:41:46.022Z,102695.95
2019-03-22T11:44:15.730Z,102694.28
2019-03-22T11:46:45.478Z,102686.36
2019-03-22T11:49:15.307Z,102679.88
2019-03-22T11:51:45.048Z,102679.06
2019-03-22T11:54:14.783Z,102676.41
2019-03-22T11:56:44.539Z,102669.14
2019-03-22T11:59:14.403Z,102670.48
2019-03-22T12:01:44.100Z,102662.03
2019-03-22T12:04:13.755Z,102656.41
2019-03-22T12:06:45.827Z,102649.95
2019-03-22T12:09:15.541Z,102638.31
2019-03-22T12:11:45.488Z,102632.30
2019-03-22T12:14:15.507Z,102629.84
2019-03-22T12:16:45.236Z,102623.86
2019-03-22T12:19:14.879Z,102621.45
2019-03-22T12:21:44.651Z,102621.93
2019-03-22T12:24:14.409Z,102606.23
2019-03-22T12:26:44.123Z,102605.19
2019-03-22T12:29:14.088Z,102593.64
2019-03-22T12:31:43.813Z,102595.09
2019-03-22T12:34:13.843Z,102590.23
2019-03-22T12:36:43.490Z,102587.25
2019-03-22T12:39:13.381Z,102581.02
2019-03-22T12:41:43.155Z,102582.56
2019-03-22T12:44:12.959Z,102582.02
2019-03-22T12:46:42.636Z,102580.14
2019-03-22T12:49:12.479Z,102578.92
2019-03-22T12:51:42.207Z,102572.86
2019-03-22T12:54:11.925Z,102568.39
2019-03-22T12:56:41.699Z,102562.75
2019-03-22T12:59:11.489Z,102560.66
2019-03-22T13:01:41.309Z,102563.58
2019-03-22T13:04:11.287Z,102561.02
2019-03-22T13:06:41.038Z,102555.39
2019-03-22T13:09:10.884Z,102549.78
2019-03-22T13:11:40.657Z,102544.21
2019-03-22T13:14:10.723Z,102530.27
2019-03-22T13:16:40.567Z,102524.25
2019-03-22T13:19:10.306Z,102521.66
2019-03-22T13:21:40.060Z,102524.85
2019-03-22T13:24:09.743Z,102514.39
2019-03-22T13:26:39.641Z,102517.83
2019-03-22T13:29:09.354Z,102506.64
2019-03-22T13:31:39.345Z,102501.48
2019-03-22T13:34:09.081Z,102501.27
2019-03-22T13:36:38.786Z,102499.84
2019-03-22T13:39:09.257Z,102492.00
2019-03-22T13:41:39.042Z,102489.03
2019-03-22T13:44:08.897Z,102482.79
2019-03-22T13:46:40.596Z,102487.67
2019-03-22T13:49:10.382Z,102480.66
2019-03-22T13:51:40.139Z,102479.53
2019-03-22T13:54:09.862Z,102479.49
2019-03-22T13:56:39.635Z,102478.00
2019-03-22T13:59:09.522Z,102474.28
2019-03-22T14:01:39.272Z,102469.91
2019-03-22T14:04:09.069Z,102462.62
2019-03-22T14:06:38.825Z,102466.34
2019-03-22T14:09:09.437Z,102464.92
2019-03-22T14:11:39.119Z,102460.36
2019-03-22T14:14:08.848Z,102454.16
2019-03-22T14:16:38.536Z,102450.19
2019-03-22T14:19:08.235Z,102449.17
2019-03-22T14:21:37.936Z,102439.68
2019-03-22T14:24:07.659Z,102438.58
2019-03-22T14:26:37.356Z,102436.02
2019-03-22T14:29:07.080Z,102439.86
2019-03-22T14:31:36.976Z,102428.02
2019-03-22T14:34:06.620Z,102426.67
2019-03-22T14:36:36.468Z,102421.28
2019-03-22T14:39:09.009Z,102417.83
2019-03-22T14:41:39.096Z,102420.59
2019-03-22T14:44:08.831Z,102410.73
2019-03-22T14:46:38.484Z,102410.98
2019-03-22T14:49:08.216Z,102406.49
2019-03-22T14:51:37.876Z,102399.00
2019-03-22T14:54:07.832Z,102396.04
2019-03-22T14:56:37.582Z,102387.92
2019-03-22T14:59:07.319Z,102396.56
2019-03-22T15:01:37.027Z,102397.73
2019-03-22T15:04:06.804Z,102392.22
2019-03-22T15:06:36.536Z,102387.55
2019-03-22T15:09:08.251Z,102381.54
2019-03-22T15:11:37.898Z,102379.05
2019-03-22T15:14:12.038Z,102376.43
2019-03-22T15:16:50.354Z,102375.83
2019-03-22T15:19:39.614Z,102376.09
2019-03-22T15:22:14.937Z,102371.06
2019-03-22T15:24:44.394Z,102369.81
2019-03-22T15:27:31.750Z,102372.45
2019-03-22T15:30:11.815Z,102372.58
2019-03-22T15:32:48.799Z,102363.78
2019-03-22T15:35:36.103Z,102360.42
2019-03-22T15:38:05.959Z,102355.52
2019-03-22T15:40:35.605Z,102355.08
2019-03-22T15:43:05.551Z,102357.78
2019-03-22T15:45:35.294Z,102352.50
2019-03-22T15:48:05.610Z,102354.31
2019-03-22T15:50:35.396Z,102352.83
2019-03-22T15:53:05.319Z,102345.17
2019-03-22T15:55:35.154Z,102342.65
2019-03-22T15:58:05.096Z,102340.14
2019-03-22T16:00:34.904Z,102338.51
2019-03-22T16:03:05.145Z,102341.86
2019-03-22T16:05:34.909Z,102336.33
2019-03-22T16:08:04.827Z,102343.02
2019-03-22T16:10:34.821Z,102336.78
2019-03-22T16:13:04.677Z,102340.29
2019-03-22T16:15:34.606Z,102339.27
2019-03-22T16:18:04.671Z,102341.39
2019-03-22T16:20:34.659Z,102333.12
2019-03-22T16:23:04.648Z,102334.69
2019-03-22T16:25:34.637Z,102330.54
2019-03-22T16:28:05.236Z,102333.30
2019-03-22T16:30:35.108Z,102327.03
2019-03-22T16:33:05.214Z,102334.28
2019-03-22T16:35:35.195Z,102336.04
2019-03-22T16:38:05.098Z,102328.92
2019-03-22T16:40:35.177Z,102331.02
2019-03-22T16:43:05.142Z,102328.48
2019-03-22T16:45:38.527Z,102326.62
2019-03-22T16:48:08.902Z,102324.30
2019-03-22T16:50:38.905Z,102322.41
2019-03-22T16:53:09.027Z,102318.55
2019-03-22T16:55:38.907Z,102322.30
2019-03-22T16:58:08.915Z,102316.47
2019-03-22T17:00:39.676Z,102316.96
2019-03-22T17:03:09.752Z,102314.15
2019-03-22T17:05:39.713Z,102312.89
2019-03-22T17:08:09.622Z,102315.41
2019-03-22T17:10:39.715Z,102315.69
2019-03-22T17:13:09.759Z,102313.74
2019-03-22T17:15:39.579Z,102314.19
2019-03-22T17:18:09.515Z,102315.78
2019-03-22T17:20:39.595Z,102314.60
2019-03-22T17:23:09.656Z,102324.42
2019-03-22T17:25:39.662Z,102318.77
2019-03-22T17:28:09.670Z,102317.82
2019-03-22T17:30:39.616Z,102315.96
2019-03-22T17:35:55.081Z,102315.39
2019-03-22T17:38:30.516Z,102311.19
2019-03-22T17:41:00.295Z,102322.67
2019-03-22T17:43:30.170Z,102324.15
2019-03-22T17:46:01.059Z,102323.42
2019-03-22T17:48:30.758Z,102321.92
2019-03-22T17:51:00.656Z,102322.27
2019-03-22T17:53:30.379Z,102322.34
2019-03-22T17:56:00.099Z,102319.78
2019-03-22T17:58:29.874Z,102326.84
2019-03-22T18:00:59.707Z,102321.28
2019-03-22T18:03:29.483Z,102328.90
2019-03-22T18:05:59.395Z,102327.09
2019-03-22T18:08:29.253Z,102331.72
2019-03-22T18:10:59.135Z,102336.64
2019-03-22T18:13:29.843Z,102332.95
2019-03-22T18:15:59.616Z,102342.17
2019-03-22T18:18:29.394Z,102346.55
2019-03-22T18:20:59.153Z,102342.31
2019-03-22T18:23:35.634Z,102342.37
2019-03-22T18:26:00.583Z,102345.92
2019-03-22T18:28:30.484Z,102347.60
2019-03-22T18:31:00.308Z,102354.37
2019-03-22T18:33:30.021Z,102356.57
2019-03-22T18:35:59.833Z,102361.14
2019-03-22T18:38:29.570Z,102361.42
2019-03-22T18:40:59.515Z,102362.03
2019-03-22T18:43:29.331Z,102360.19
2019-03-22T18:45:59.387Z,102360.77
2019-03-22T18:48:29.129Z,102365.89
2019-03-22T18:50:58.835Z,102361.39
2019-03-22T18:53:28.719Z,102368.14
2019-03-22T18:55:58.665Z,102366.27
2019-03-22T18:58:28.368Z,102368.17
2019-03-22T19:00:58.190Z,102367.13
2019-03-22T19:03:28.006Z,102371.16
2019-03-22T19:05:57.718Z,102378.97
2019-03-22T19:08:27.551Z,102377.12
2019-03-22T19:10:57.314Z,102374.18
2019-03-22T19:13:30.917Z,102373.63
2019-03-22T19:15:59.081Z,102376.30
2019-03-22T19:18:29.650Z,102377.11
2019-03-22T19:20:59.432Z,102376.33
2019-03-22T19:23:29.130Z,102373.13
2019-03-22T19:25:58.954Z,102375.84
2019-03-22T19:28:29.089Z,102371.85
2019-03-22T19:30:58.984Z,102367.61
2019-03-22T19:33:28.757Z,102367.31
2019-03-22T19:35:58.554Z,102369.23
2019-03-22T19:38:28.615Z,102366.00
2019-03-22T19:40:58.394Z,102366.30
2019-03-22T19:43:28.179Z,102367.66
2019-03-22T19:45:58.362Z,102369.23
2019-03-22T19:48:28.677Z,102369.00
2019-03-22T19:50:58.449Z,102369.27
2019-03-22T19:53:28.355Z,102370.33
2019-03-22T19:55:58.137Z,102371.97
2019-03-22T19:58:28.426Z,102373.02
2019-03-22T20:00:58.341Z,102374.91
2019-03-22T20:03:28.088Z,102370.09
2019-03-22T20:05:57.785Z,102369.30
2019-03-22T20:08:27.674Z,102370.38
2019-03-22T20:10:57.502Z,102369.56
2019-03-22T20:13:27.201Z,102372.50
2019-03-22T20:15:56.937Z,102367.69
2019-03-22T20:18:26.697Z,102365.55
2019-03-22T20:20:56.432Z,102365.02
2019-03-22T20:23:26.211Z,102371.98
2019-03-22T20:25:56.036Z,102366.88
2019-03-22T20:28:26.047Z,102359.91
2019-03-22T20:30:55.940Z,102357.51
2019-03-22T20:33:25.760Z,102364.45
2019-03-22T20:35:55.612Z,102359.09
2019-03-22T20:38:25.369Z,102364.74
2019-03-22T20:40:55.188Z,102359.36
2019-03-22T20:43:25.189Z,102356.94
2019-03-22T20:45:55.000Z,102362.81
2019-03-22T20:48:24.888Z,102367.66
2019-03-22T20:50:54.659Z,102366.05
2019-03-22T20:53:24.432Z,102367.09
2019-03-22T20:55:54.373Z,102357.16
2019-03-22T20:58:24.253Z,102357.44
2019-03-22T21:00:54.009Z,102364.38
2019-03-22T21:03:23.841Z,102364.65
2019-03-22T21:05:53.739Z,102360.36
2019-03-22T21:08:23.377Z,102367.05
2019-03-22T21:10:53.180Z,102366.28
2019-03-22T21:13:22.934Z,102366.80
2019-03-22T21:15:52.705Z,102364.35
2019-03-22T21:18:22.394Z,102365.95
2019-03-22T21:20:52.343Z,102362.73
2019-03-22T21:23:22.261Z,102367.28
2019-03-22T21:25:52.522Z,102361.92
2019-03-22T21:28:22.396Z,102362.46
2019-03-22T21:30:52.277Z,102361.66
2019-03-22T21:33:22.152Z,102357.35
2019-03-22T21:35:52.038Z,102366.70
2019-03-22T21:38:21.711Z,102362.97
2019-03-22T21:40:51.468Z,102365.09
2019-03-22T21:43:22.117Z,102357.59
2019-03-22T21:45:51.969Z,102360.53
2019-03-22T21:48:21.820Z,102363.98
2019-03-22T21:50:51.692Z,102361.02
2019-03-22T21:53:21.496Z,102359.37
2019-03-22T21:55:51.374Z,102363.37
2019-03-22T21:58:21.507Z,102360.93
2019-03-22T22:00:51.326Z,102365.73
2019-03-22T22:03:21.271Z,102365.45
2019-03-22T22:05:51.207Z,102364.63
2019-03-22T22:08:21.082Z,102361.14
2019-03-22T22:10:59.417Z,102361.14
2019-03-22T22:13:22.267Z,102360.59
2019-03-22T22:15:52.032Z,102360.56
2019-03-22T22:18:21.879Z,102359.14
2019-03-22T22:20:51.593Z,102361.49
2019-03-22T22:23:21.382Z,102359.37
2019-03-22T22:25:51.120Z,102356.70
2019-03-22T22:28:21.000Z,102362.83
2019-03-22T22:30:51.193Z,102364.91
2019-03-22T22:33:21.134Z,102370.48
2019-03-22T22:35:58.563Z,102377.98
2019-03-22T22:38:22.376Z,102381.41
2019-03-22T22:40:52.089Z,102380.84
2019-03-22T22:43:21.908Z,102384.05
2019-03-22T22:45:51.742Z,102382.48
2019-03-22T22:48:21.578Z,102383.81
2019-03-22T22:50:51.264Z,102387.80
2019-03-22T22:53:21.083Z,102394.21
2019-03-22T22:55:50.893Z,102391.50
2019-03-22T22:58:20.607Z,102389.34
2019-03-22T23:00:50.685Z,102396.25
2019-03-22T23:03:20.641Z,102393.21
2019-03-22T23:05:50.409Z,102397.22
2019-03-22T23:08:20.339Z,102399.41
2019-03-22T23:10:50.074Z,102399.77
2019-03-22T23:13:19.784Z,102416.59
2019-03-22T23:15:49.536Z,102408.02
2019-03-22T23:18:19.311Z,102411.95
2019-03-22T23:20:49.049Z,102410.36
2019-03-22T23:23:18.848Z,102405.90
2019-03-22T23:25:48.709Z,102405.34
2019-03-22T23:28:18.411Z,102405.27
2019-03-22T23:30:48.068Z,102410.69
2019-03-22T23:33:17.777Z,102405.23
2019-03-22T23:35:47.565Z,102408.50
2019-03-22T23:38:17.563Z,102412.03
2019-03-22T23:40:47.344Z,102412.99
2019-03-22T23:43:17.034Z,102414.33
2019-03-22T23:45:46.778Z,102409.47
2019-03-22T23:48:16.666Z,102408.39
2019-03-22T23:50:46.358Z,102409.69
2019-03-22T23:53:16.113Z,102409.13
2019-03-22T23:55:45.914Z,102414.00
2019-03-22T23:58:15.764Z,102414.78
